sensor_id;sensor_type;location;lat;lon;timestamp;pressure;altitude;pressure_sealevel;temperature;humidity
76201;BME280;64981;52.930;9.266;2024-01-15T00:01:55;99317.78;;;1.89;78.65
76201;BME280;64981;52.930;9.266;2024-01-15T00:04:21;99299.66;;;2.06;77.32
76201;BME280;64981;52.930;9.266;2024-01-15T00:06:47;99305.38;;;1.63;78.71
76201;BME280;64981;52.930;9.266;2024-01-15T00:09:12;99311.69;;;1.51;79.63
76201;BME280;64981;52.930;9.266;2024-01-15T00:11:38;99314.00;;;1.64;79.31
76201;BME280;64981;52.930;9.266;2024-01-15T00:14:04;99302.09;;;1.61;78.68
76201;BME280;64981;52.930;9.266;2024-01-15T00:16:29;99301.88;;;1.92;77.64
76201;BME280;64981;52.930;9.266;2024-01-15T00:18:55;99305.06;;;1.76;78.06
76201;BME280;64981;52.930;9.266;2024-01-15T00:21:20;99302.34;;;1.78;77.96
76201;BME280;64981;52.930;9.266;2024-01-15T00:23:46;99294.59;;;1.95;77.45
76201;BME280;64981;52.930;9.266;2024-01-15T00:26:12;99302.75;;;1.73;78.03
76201;BME280;64981;52.930;9.266;2024-01-15T00:28:38;99298.22;;;1.85;77.56
76201;BME280;64981;52.930;9.266;2024-01-15T00:31:05;99286.28;;;1.82;77.41
76201;BME280;64981;52.930;9.266;2024-01-15T00:33:31;99254.47;;;1.51;78.13
76201;BME280;64981;52.930;9.266;2024-01-15T00:35:56;99264.44;;;1.65;77.76
76201;BME280;64981;52.930;9.266;2024-01-15T00:38:22;99253.34;;;1.54;78.15
76201;BME280;64981;52.930;9.266;2024-01-15T00:40:48;99269.22;;;1.60;78.20
76201;BME280;64981;52.930;9.266;2024-01-15T00:43:13;99271.94;;;1.78;76.94
76201;BME280;64981;52.930;9.266;2024-01-15T00:45:40;99269.66;;;1.65;78.07
76201;BME280;64981;52.930;9.266;2024-01-15T00:48:06;99268.47;;;1.50;78.34
76201;BME280;64981;52.930;9.266;2024-01-15T00:50:32;99250.50;;;1.57;78.33
76201;BME280;64981;52.930;9.266;2024-01-15T00:52:57;99255.84;;;1.46;78.55
76201;BME280;64981;52.930;9.266;2024-01-15T00:55:23;99248.00;;;1.65;78.08
76201;BME280;64981;52.930;9.266;2024-01-15T00:57:48;99245.69;;;1.62;77.30
76201;BME280;64981;52.930;9.266;2024-01-15T01:00:14;99245.38;;;1.74;77.25
76201;BME280;64981;52.930;9.266;2024-01-15T01:02:40;99250.53;;;1.84;76.80
76201;BME280;64981;52.930;9.266;2024-01-15T01:05:05;99232.44;;;1.83;76.94
76201;BME280;64981;52.930;9.266;2024-01-15T01:07:31;99251.75;;;1.90;76.39
76201;BME280;64981;52.930;9.266;2024-01-15T01:09:57;99255.84;;;1.92;76.10
76201;BME280;64981;52.930;9.266;2024-01-15T01:12:22;99245.88;;;1.88;75.81
76201;BME280;64981;52.930;9.266;2024-01-15T01:14:48;99245.66;;;1.99;76.15
76201;BME280;64981;52.930;9.266;2024-01-15T01:17:13;99241.56;;;1.96;75.81
76201;BME280;64981;52.930;9.266;2024-01-15T01:19:39;99225.28;;;1.94;75.58
76201;BME280;64981;52.930;9.266;2024-01-15T01:22:05;99236.31;;;2.06;75.46
76201;BME280;64981;52.930;9.266;2024-01-15T01:24:30;99243.13;;;2.16;74.92
76201;BME280;64981;52.930;9.266;2024-01-15T01:26:56;99228.72;;;2.22;75.27
76201;BME280;64981;52.930;9.266;2024-01-15T01:29:21;99239.72;;;2.16;75.25
76201;BME280;64981;52.930;9.266;2024-01-15T01:31:48;99236.03;;;2.09;75.24
76201;BME280;64981;52.930;9.266;2024-01-15T01:34:15;99244.63;;;2.19;74.75
76201;BME280;64981;52.930;9.266;2024-01-15T01:36:41;99240.63;;;2.24;74.85
76201;BME280;64981;52.930;9.266;2024-01-15T01:39:07;99239.66;;;2.25;74.97
76201;BME280;64981;52.930;9.266;2024-01-15T01:41:32;99229.59;;;2.13;75.42
76201;BME280;64981;52.930;9.266;2024-01-15T01:43:58;99232.22;;;2.31;74.85
76201;BME280;64981;52.930;9.266;2024-01-15T01:46:24;99234.03;;;2.20;75.42
76201;BME280;64981;52.930;9.266;2024-01-15T01:48:52;99235.69;;;2.21;75.52
76201;BME280;64981;52.930;9.266;2024-01-15T01:51:19;99239.84;;;2.14;75.67
76201;BME280;64981;52.930;9.266;2024-01-15T01:53:46;99231.91;;;2.16;76.19
76201;BME280;64981;52.930;9.266;2024-01-15T01:56:13;99241.16;;;2.01;77.49
76201;BME280;64981;52.930;9.266;2024-01-15T01:58:40;99228.22;;;2.09;77.64
76201;BME280;64981;52.930;9.266;2024-01-15T02:01:06;99221.66;;;2.05;78.12
76201;BME280;64981;52.930;9.266;2024-01-15T02:03:32;99233.47;;;1.99;78.25
76201;BME280;64981;52.930;9.266;2024-01-15T02:05:59;99240.28;;;2.10;77.91
76201;BME280;64981;52.930;9.266;2024-01-15T02:08:25;99223.19;;;1.98;78.77
76201;BME280;64981;52.930;9.266;2024-01-15T02:10:51;99226.78;;;1.97;78.98
76201;BME280;64981;52.930;9.266;2024-01-15T02:13:17;99223.03;;;1.82;79.88
76201;BME280;64981;52.930;9.266;2024-01-15T02:15:43;99213.81;;;1.87;79.95
76201;BME280;64981;52.930;9.266;2024-01-15T02:18:09;99212.56;;;1.91;79.48
76201;BME280;64981;52.930;9.266;2024-01-15T02:20:35;99199.31;;;1.85;79.77
76201;BME280;64981;52.930;9.266;2024-01-15T02:23:09;99209.25;;;1.89;79.81
76201;BME280;64981;52.930;9.266;2024-01-15T02:25:39;99202.47;;;1.79;80.28
76201;BME280;64981;52.930;9.266;2024-01-15T02:28:06;99211.19;;;1.87;80.26
76201;BME280;64981;52.930;9.266;2024-01-15T02:30:37;99210.47;;;1.95;80.25
76201;BME280;64981;52.930;9.266;2024-01-15T02:33:04;99205.88;;;1.79;80.29
76201;BME280;64981;52.930;9.266;2024-01-15T02:35:30;99202.38;;;1.70;81.26
76201;BME280;64981;52.930;9.266;2024-01-15T02:37:55;99203.16;;;1.81;80.92
76201;BME280;64981;52.930;9.266;2024-01-15T02:40:21;99199.34;;;1.75;80.61
76201;BME280;64981;52.930;9.266;2024-01-15T02:42:46;99202.03;;;1.83;80.17
76201;BME280;64981;52.930;9.266;2024-01-15T02:45:12;99203.41;;;1.87;80.40
76201;BME280;64981;52.930;9.266;2024-01-15T02:47:38;99194.84;;;1.67;80.83
76201;BME280;64981;52.930;9.266;2024-01-15T02:50:04;99198.50;;;1.74;80.65
76201;BME280;64981;52.930;9.266;2024-01-15T02:52:29;99192.06;;;1.79;80.65
76201;BME280;64981;52.930;9.266;2024-01-15T02:54:55;99196.53;;;1.86;80.19
76201;BME280;64981;52.930;9.266;2024-01-15T02:57:20;99200.00;;;1.77;80.50
76201;BME280;64981;52.930;9.266;2024-01-15T02:59:46;99203.28;;;1.79;80.56
76201;BME280;64981;52.930;9.266;2024-01-15T03:02:11;99205.47;;;1.84;80.40
76201;BME280;64981;52.930;9.266;2024-01-15T03:04:37;99200.88;;;1.95;80.37
76201;BME280;64981;52.930;9.266;2024-01-15T03:07:02;99213.16;;;1.85;80.55
76201;BME280;64981;52.930;9.266;2024-01-15T03:09:28;99216.78;;;1.92;80.44
76201;BME280;64981;52.930;9.266;2024-01-15T03:11:54;99210.78;;;1.82;80.51
76201;BME280;64981;52.930;9.266;2024-01-15T03:14:19;99206.00;;;1.87;80.46
76201;BME280;64981;52.930;9.266;2024-01-15T03:16:45;99208.97;;;1.92;80.44
76201;BME280;64981;52.930;9.266;2024-01-15T03:19:11;99202.28;;;1.90;80.36
76201;BME280;64981;52.930;9.266;2024-01-15T03:21:36;99212.22;;;2.04;79.88
76201;BME280;64981;52.930;9.266;2024-01-15T03:24:02;99221.56;;;1.97;79.92
76201;BME280;64981;52.930;9.266;2024-01-15T03:26:28;99217.66;;;2.10;79.46
76201;BME280;64981;52.930;9.266;2024-01-15T03:28:53;99219.53;;;2.18;78.74
76201;BME280;64981;52.930;9.266;2024-01-15T03:31:19;99224.75;;;2.18;79.00
76201;BME280;64981;52.930;9.266;2024-01-15T03:33:45;99213.97;;;2.13;78.99
76201;BME280;64981;52.930;9.266;2024-01-15T03:36:10;99207.56;;;2.25;78.34
76201;BME280;64981;52.930;9.266;2024-01-15T03:38:40;99216.16;;;2.08;79.26
76201;BME280;64981;52.930;9.266;2024-01-15T03:41:06;99223.44;;;2.04;79.15
76201;BME280;64981;52.930;9.266;2024-01-15T03:43:31;99217.50;;;2.12;79.16
76201;BME280;64981;52.930;9.266;2024-01-15T03:45:57;99220.13;;;2.12;78.87
76201;BME280;64981;52.930;9.266;2024-01-15T03:48:23;99223.75;;;2.28;78.10
76201;BME280;64981;52.930;9.266;2024-01-15T03:50:48;99229.00;;;2.19;78.65
76201;BME280;64981;52.930;9.266;2024-01-15T03:53:14;99221.25;;;2.09;78.52
76201;BME280;64981;52.930;9.266;2024-01-15T03:55:39;99222.94;;;2.01;79.20
76201;BME280;64981;52.930;9.266;2024-01-15T03:58:05;99222.06;;;2.10;78.55
76201;BME280;64981;52.930;9.266;2024-01-15T04:00:30;99217.50;;;2.12;78.99
76201;BME280;64981;52.930;9.266;2024-01-15T04:02:56;99223.34;;;1.96;79.32
76201;BME280;64981;52.930;9.266;2024-01-15T04:05:21;99210.94;;;2.08;78.80
76201;BME280;64981;52.930;9.266;2024-01-15T04:07:47;99218.97;;;1.97;79.26
76201;BME280;64981;52.930;9.266;2024-01-15T04:10:13;99217.28;;;2.05;79.42
76201;BME280;64981;52.930;9.266;2024-01-15T04:12:38;99210.13;;;2.07;78.85
76201;BME280;64981;52.930;9.266;2024-01-15T04:15:04;99216.03;;;2.09;78.95
76201;BME280;64981;52.930;9.266;2024-01-15T04:17:30;99249.44;;;1.87;80.50
76201;BME280;64981;52.930;9.266;2024-01-15T04:19:55;99228.31;;;2.17;79.01
76201;BME280;64981;52.930;9.266;2024-01-15T04:22:21;99226.50;;;2.00;79.62
76201;BME280;64981;52.930;9.266;2024-01-15T04:24:46;99226.50;;;2.00;79.57
76201;BME280;64981;52.930;9.266;2024-01-15T04:27:12;99218.22;;;2.04;79.62
76201;BME280;64981;52.930;9.266;2024-01-15T04:29:38;99223.84;;;2.09;79.41
76201;BME280;64981;52.930;9.266;2024-01-15T04:32:05;99208.94;;;2.02;79.60
76201;BME280;64981;52.930;9.266;2024-01-15T04:34:30;99221.47;;;2.16;78.74
76201;BME280;64981;52.930;9.266;2024-01-15T04:36:56;99215.50;;;2.06;79.22
76201;BME280;64981;52.930;9.266;2024-01-15T04:39:21;99218.19;;;2.14;78.63
76201;BME280;64981;52.930;9.266;2024-01-15T04:41:47;99207.75;;;2.14;79.14
76201;BME280;64981;52.930;9.266;2024-01-15T04:44:13;99214.84;;;2.21;78.42
76201;BME280;64981;52.930;9.266;2024-01-15T04:46:39;99223.78;;;2.19;78.83
76201;BME280;64981;52.930;9.266;2024-01-15T04:49:04;99200.69;;;2.06;78.85
76201;BME280;64981;52.930;9.266;2024-01-15T04:51:30;99206.69;;;2.16;78.73
76201;BME280;64981;52.930;9.266;2024-01-15T04:53:55;99201.72;;;2.13;78.97
76201;BME280;64981;52.930;9.266;2024-01-15T04:56:21;99195.44;;;2.16;78.94
76201;BME280;64981;52.930;9.266;2024-01-15T04:58:47;99197.50;;;2.12;79.17
76201;BME280;64981;52.930;9.266;2024-01-15T05:01:12;99150.38;;;1.88;78.25
76201;BME280;64981;52.930;9.266;2024-01-15T05:03:38;99202.75;;;2.03;78.69
76201;BME280;64981;52.930;9.266;2024-01-15T05:06:04;99197.22;;;1.88;78.71
76201;BME280;64981;52.930;9.266;2024-01-15T05:08:29;99194.75;;;1.87;79.17
76201;BME280;64981;52.930;9.266;2024-01-15T05:10:55;99204.09;;;1.80;79.67
76201;BME280;64981;52.930;9.266;2024-01-15T05:13:20;99192.72;;;1.81;79.68
76201;BME280;64981;52.930;9.266;2024-01-15T05:15:46;99192.31;;;1.85;79.67
76201;BME280;64981;52.930;9.266;2024-01-15T05:18:12;99196.06;;;2.00;78.88
76201;BME280;64981;52.930;9.266;2024-01-15T05:20:38;99206.13;;;1.86;79.67
76201;BME280;64981;52.930;9.266;2024-01-15T05:23:03;99216.00;;;1.82;79.84
76201;BME280;64981;52.930;9.266;2024-01-15T05:25:29;99206.31;;;2.02;79.38
76201;BME280;64981;52.930;9.266;2024-01-15T05:27:54;99190.91;;;1.91;79.46
76201;BME280;64981;52.930;9.266;2024-01-15T05:30:20;99201.69;;;1.96;79.40
76201;BME280;64981;52.930;9.266;2024-01-15T05:32:46;99197.06;;;1.90;79.38
76201;BME280;64981;52.930;9.266;2024-01-15T05:35:11;99203.47;;;1.95;79.94
76201;BME280;64981;52.930;9.266;2024-01-15T05:37:37;99206.81;;;1.88;80.52
76201;BME280;64981;52.930;9.266;2024-01-15T05:40:02;99208.44;;;1.61;80.65
76201;BME280;64981;52.930;9.266;2024-01-15T05:42:29;99202.41;;;1.61;80.85
76201;BME280;64981;52.930;9.266;2024-01-15T05:44:57;99201.31;;;1.91;79.76
76201;BME280;64981;52.930;9.266;2024-01-15T05:47:24;99200.59;;;1.71;80.30
76201;BME280;64981;52.930;9.266;2024-01-15T05:49:50;99203.16;;;1.81;79.44
76201;BME280;64981;52.930;9.266;2024-01-15T05:52:15;99191.94;;;1.70;80.25
76201;BME280;64981;52.930;9.266;2024-01-15T05:54:42;99196.88;;;1.73;80.47
76201;BME280;64981;52.930;9.266;2024-01-15T05:57:07;99190.72;;;1.74;80.45
76201;BME280;64981;52.930;9.266;2024-01-15T05:59:33;99189.91;;;1.64;80.55
76201;BME280;64981;52.930;9.266;2024-01-15T06:02:01;99180.72;;;1.70;80.12
76201;BME280;64981;52.930;9.266;2024-01-15T06:04:27;99199.47;;;1.73;80.46
76201;BME280;64981;52.930;9.266;2024-01-15T06:06:52;99181.88;;;1.58;80.44
76201;BME280;64981;52.930;9.266;2024-01-15T06:09:18;99199.13;;;1.86;79.88
76201;BME280;64981;52.930;9.266;2024-01-15T06:11:43;99208.06;;;1.84;79.53
76201;BME280;64981;52.930;9.266;2024-01-15T06:14:09;99202.16;;;1.91;79.61
76201;BME280;64981;52.930;9.266;2024-01-15T06:16:34;99191.34;;;1.86;79.52
76201;BME280;64981;52.930;9.266;2024-01-15T06:19:00;99198.03;;;1.89;79.48
76201;BME280;64981;52.930;9.266;2024-01-15T06:21:25;99212.69;;;1.90;79.96
76201;BME280;64981;52.930;9.266;2024-01-15T06:23:51;99204.53;;;2.02;79.46
76201;BME280;64981;52.930;9.266;2024-01-15T06:26:17;99213.47;;;2.00;79.54
76201;BME280;64981;52.930;9.266;2024-01-15T06:28:42;99207.44;;;1.99;79.63
76201;BME280;64981;52.930;9.266;2024-01-15T06:31:08;99201.13;;;2.02;79.16
76201;BME280;64981;52.930;9.266;2024-01-15T06:33:33;99199.72;;;2.07;79.48
76201;BME280;64981;52.930;9.266;2024-01-15T06:35:59;99209.16;;;2.08;79.24
76201;BME280;64981;52.930;9.266;2024-01-15T06:38:25;99206.03;;;2.05;79.13
76201;BME280;64981;52.930;9.266;2024-01-15T06:40:51;99204.41;;;2.04;79.83
76201;BME280;64981;52.930;9.266;2024-01-15T06:43:17;99196.72;;;2.02;79.58
76201;BME280;64981;52.930;9.266;2024-01-15T06:45:44;99212.91;;;2.06;79.93
76201;BME280;64981;52.930;9.266;2024-01-15T06:48:09;99204.75;;;1.91;80.08
76201;BME280;64981;52.930;9.266;2024-01-15T06:50:35;99213.56;;;2.08;79.45
76201;BME280;64981;52.930;9.266;2024-01-15T06:53:01;99198.91;;;2.07;80.15
76201;BME280;64981;52.930;9.266;2024-01-15T06:55:26;99206.44;;;2.10;79.91
76201;BME280;64981;52.930;9.266;2024-01-15T06:57:53;99205.69;;;2.17;79.66
76201;BME280;64981;52.930;9.266;2024-01-15T07:00:18;99211.44;;;2.21;79.43
76201;BME280;64981;52.930;9.266;2024-01-15T07:02:45;99211.72;;;2.18;79.42
76201;BME280;64981;52.930;9.266;2024-01-15T07:05:11;99209.72;;;2.29;78.89
76201;BME280;64981;52.930;9.266;2024-01-15T07:07:37;99205.69;;;2.17;78.69
76201;BME280;64981;52.930;9.266;2024-01-15T07:10:03;99206.47;;;2.27;78.63
76201;BME280;64981;52.930;9.266;2024-01-15T07:12:29;99221.25;;;2.09;79.57
76201;BME280;64981;52.930;9.266;2024-01-15T07:14:56;99224.69;;;2.27;78.71
76201;BME280;64981;52.930;9.266;2024-01-15T07:17:22;99205.97;;;2.14;79.21
76201;BME280;64981;52.930;9.266;2024-01-15T07:19:48;99208.16;;;2.19;78.75
76201;BME280;64981;52.930;9.266;2024-01-15T07:22:14;99209.41;;;2.15;79.08
76201;BME280;64981;52.930;9.266;2024-01-15T07:24:43;99210.19;;;2.25;79.09
76201;BME280;64981;52.930;9.266;2024-01-15T07:27:09;99216.28;;;2.16;79.21
76201;BME280;64981;52.930;9.266;2024-01-15T07:29:35;99211.72;;;2.18;78.90
76201;BME280;64981;52.930;9.266;2024-01-15T07:32:03;99219.53;;;2.18;79.39
76201;BME280;64981;52.930;9.266;2024-01-15T07:34:29;99229.19;;;2.08;79.60
76201;BME280;64981;52.930;9.266;2024-01-15T07:36:57;99238.78;;;2.35;78.55
76201;BME280;64981;52.930;9.266;2024-01-15T07:39:23;99238.97;;;2.23;78.60
76201;BME280;64981;52.930;9.266;2024-01-15T07:41:50;99251.56;;;2.28;78.81
76201;BME280;64981;52.930;9.266;2024-01-15T07:44:16;99245.75;;;2.16;79.17
76201;BME280;64981;52.930;9.266;2024-01-15T07:46:46;99243.91;;;1.99;79.70
76201;BME280;64981;52.930;9.266;2024-01-15T07:49:12;99251.13;;;2.05;79.66
76201;BME280;64981;52.930;9.266;2024-01-15T07:51:38;99259.59;;;2.07;79.57
76201;BME280;64981;52.930;9.266;2024-01-15T07:54:06;99258.66;;;2.08;78.99
76201;BME280;64981;52.930;9.266;2024-01-15T07:56:32;99270.50;;;1.93;79.56
76201;BME280;64981;52.930;9.266;2024-01-15T07:58:58;99260.78;;;1.86;80.16
76201;BME280;64981;52.930;9.266;2024-01-15T08:01:24;99269.47;;;1.77;80.35
76201;BME280;64981;52.930;9.266;2024-01-15T08:03:50;99270.72;;;1.72;80.85
76201;BME280;64981;52.930;9.266;2024-01-15T08:06:15;99264.78;;;1.80;80.88
76201;BME280;64981;52.930;9.266;2024-01-15T08:08:42;99260.91;;;1.94;79.50
76201;BME280;64981;52.930;9.266;2024-01-15T08:11:07;99263.09;;;1.89;80.62
76201;BME280;64981;52.930;9.266;2024-01-15T08:13:33;99264.94;;;1.79;80.83
76201;BME280;64981;52.930;9.266;2024-01-15T08:15:58;99268.31;;;1.89;80.39
76201;BME280;64981;52.930;9.266;2024-01-15T08:18:24;99276.66;;;1.92;80.53
76201;BME280;64981;52.930;9.266;2024-01-15T08:20:50;99282.53;;;2.04;79.98
76201;BME280;64981;52.930;9.266;2024-01-15T08:23:17;99276.06;;;2.08;79.74
76201;BME280;64981;52.930;9.266;2024-01-15T08:25:43;99272.03;;;2.13;79.15
76201;BME280;64981;52.930;9.266;2024-01-15T08:28:08;99275.38;;;2.06;79.43
76201;BME280;64981;52.930;9.266;2024-01-15T08:30:34;99274.50;;;1.88;80.39
76201;BME280;64981;52.930;9.266;2024-01-15T08:33:00;99284.59;;;2.00;80.48
76201;BME280;64981;52.930;9.266;2024-01-15T08:35:25;99268.88;;;1.83;80.60
76201;BME280;64981;52.930;9.266;2024-01-15T08:37:51;99284.34;;;1.94;80.27
76201;BME280;64981;52.930;9.266;2024-01-15T08:40:17;99277.03;;;2.07;79.79
76201;BME280;64981;52.930;9.266;2024-01-15T08:42:43;99264.09;;;1.88;80.22
76201;BME280;64981;52.930;9.266;2024-01-15T08:45:09;99276.88;;;2.08;79.74
76201;BME280;64981;52.930;9.266;2024-01-15T08:47:35;99275.97;;;2.00;79.92
76201;BME280;64981;52.930;9.266;2024-01-15T08:50:02;99276.41;;;2.22;79.29
76201;BME280;64981;52.930;9.266;2024-01-15T08:52:29;99287.53;;;2.15;79.23
76201;BME280;64981;52.930;9.266;2024-01-15T08:54:57;99276.41;;;2.22;78.47
76201;BME280;64981;52.930;9.266;2024-01-15T08:57:22;99278.38;;;2.11;78.89
76201;BME280;64981;52.930;9.266;2024-01-15T08:59:48;99284.13;;;2.14;79.16
76201;BME280;64981;52.930;9.266;2024-01-15T09:02:14;99260.97;;;2.11;79.04
76201;BME280;64981;52.930;9.266;2024-01-15T09:04:40;99276.06;;;2.08;78.70
76201;BME280;64981;52.930;9.266;2024-01-15T09:07:07;99269.09;;;2.26;78.57
76201;BME280;64981;52.930;9.266;2024-01-15T09:09:33;99274.91;;;2.20;78.39
76201;BME280;64981;52.930;9.266;2024-01-15T09:11:59;99277.63;;;2.28;78.04
76201;BME280;64981;52.930;9.266;2024-01-15T09:14:25;99291.06;;;2.23;78.40
76201;BME280;64981;52.930;9.266;2024-01-15T09:16:53;99279.19;;;2.39;78.09
76201;BME280;64981;52.930;9.266;2024-01-15T09:19:19;99288.56;;;2.32;78.21
76201;BME280;64981;52.930;9.266;2024-01-15T09:21:44;99295.31;;;2.24;78.57
76201;BME280;64981;52.930;9.266;2024-01-15T09:24:10;99293.81;;;2.22;78.63
76201;BME280;64981;52.930;9.266;2024-01-15T09:26:36;99296.44;;;2.22;78.29
76201;BME280;64981;52.930;9.266;2024-01-15T09:29:02;99294.97;;;2.10;78.94
76201;BME280;64981;52.930;9.266;2024-01-15T09:31:28;99295.34;;;2.15;78.80
76201;BME280;64981;52.930;9.266;2024-01-15T09:33:54;99303.16;;;2.42;78.19
76201;BME280;64981;52.930;9.266;2024-01-15T09:36:25;99292.78;;;2.33;77.80
76201;BME280;64981;52.930;9.266;2024-01-15T09:38:51;99300.84;;;2.39;77.74
76201;BME280;64981;52.930;9.266;2024-01-15T09:41:17;99288.00;;;2.38;77.68
76201;BME280;64981;52.930;9.266;2024-01-15T09:43:43;99292.47;;;2.45;77.64
76201;BME280;64981;52.930;9.266;2024-01-15T09:46:09;99294.78;;;2.48;77.46
76201;BME280;64981;52.930;9.266;2024-01-15T09:48:35;99298.59;;;2.54;76.60
76201;BME280;64981;52.930;9.266;2024-01-15T09:51:02;99296.97;;;2.70;75.92
76201;BME280;64981;52.930;9.266;2024-01-15T09:53:28;99299.63;;;2.61;76.31
76201;BME280;64981;52.930;9.266;2024-01-15T09:55:53;99299.25;;;2.56;76.54
76201;BME280;64981;52.930;9.266;2024-01-15T09:58:19;99288.72;;;2.75;76.06
76201;BME280;64981;52.930;9.266;2024-01-15T10:00:48;99303.78;;;2.81;75.43
76201;BME280;64981;52.930;9.266;2024-01-15T10:03:15;99296.22;;;2.60;76.30
76201;BME280;64981;52.930;9.266;2024-01-15T10:05:42;99301.22;;;2.71;75.63
76201;BME280;64981;52.930;9.266;2024-01-15T10:08:09;99302.19;;;2.70;76.53
76201;BME280;64981;52.930;9.266;2024-01-15T10:10:36;99297.53;;;2.92;76.00
76201;BME280;64981;52.930;9.266;2024-01-15T10:13:03;99299.09;;;3.02;74.82
76201;BME280;64981;52.930;9.266;2024-01-15T10:15:29;99294.75;;;2.93;75.04
76201;BME280;64981;52.930;9.266;2024-01-15T10:17:55;99302.06;;;2.90;74.91
76201;BME280;64981;52.930;9.266;2024-01-15T10:20:21;99293.81;;;2.94;74.91
76201;BME280;64981;52.930;9.266;2024-01-15T10:22:47;99295.34;;;3.05;74.43
76201;BME280;64981;52.930;9.266;2024-01-15T10:25:14;99281.03;;;2.73;75.75
76201;BME280;64981;52.930;9.266;2024-01-15T10:27:41;99284.09;;;2.87;75.45
76201;BME280;64981;52.930;9.266;2024-01-15T10:30:08;99288.06;;;2.91;74.75
76201;BME280;64981;52.930;9.266;2024-01-15T10:32:34;99303.25;;;2.77;75.87
76201;BME280;64981;52.930;9.266;2024-01-15T10:34:59;99285.88;;;2.86;74.94
76201;BME280;64981;52.930;9.266;2024-01-15T10:37:25;99285.97;;;2.94;75.05
76201;BME280;64981;52.930;9.266;2024-01-15T10:39:51;99294.22;;;2.72;76.12
76201;BME280;64981;52.930;9.266;2024-01-15T10:42:16;99290.50;;;2.92;75.29
76201;BME280;64981;52.930;9.266;2024-01-15T10:44:44;99285.66;;;2.79;75.30
76201;BME280;64981;52.930;9.266;2024-01-15T10:47:12;99288.72;;;2.75;76.02
76201;BME280;64981;52.930;9.266;2024-01-15T10:49:39;99286.81;;;2.95;75.52
76201;BME280;64981;52.930;9.266;2024-01-15T10:52:05;99290.44;;;2.84;75.46
76201;BME280;64981;52.930;9.266;2024-01-15T10:54:31;99282.03;;;2.90;75.43
76201;BME280;64981;52.930;9.266;2024-01-15T10:56:57;99289.84;;;2.90;75.38
76201;BME280;64981;52.930;9.266;2024-01-15T10:59:23;99280.06;;;2.74;76.03
76201;BME280;64981;52.930;9.266;2024-01-15T11:01:51;99273.47;;;2.98;74.50
76201;BME280;64981;52.930;9.266;2024-01-15T11:04:20;99297.16;;;3.22;73.67
76201;BME280;64981;52.930;9.266;2024-01-15T11:06:51;99276.22;;;2.96;75.01
76201;BME280;64981;52.930;9.266;2024-01-15T11:09:17;99275.53;;;2.94;74.64
76201;BME280;64981;52.930;9.266;2024-01-15T11:11:45;99279.78;;;2.95;75.18
76201;BME280;64981;52.930;9.266;2024-01-15T11:16:58;99275.81;;;2.73;75.54
76201;BME280;64981;52.930;9.266;2024-01-15T11:19:25;99289.25;;;2.78;76.13
76201;BME280;64981;52.930;9.266;2024-01-15T11:21:51;99293.84;;;2.67;75.92
76201;BME280;64981;52.930;9.266;2024-01-15T11:24:33;99287.97;;;2.82;76.20
76201;BME280;64981;52.930;9.266;2024-01-15T11:26:59;99284.63;;;3.08;74.98
76201;BME280;64981;52.930;9.266;2024-01-15T11:29:31;99286.13;;;2.93;75.00
76201;BME280;64981;52.930;9.266;2024-01-15T11:32:07;99276.41;;;3.20;74.02
76201;BME280;64981;52.930;9.266;2024-01-15T11:37:20;99279.84;;;3.21;74.54
76201;BME280;64981;52.930;9.266;2024-01-15T11:39:47;99281.94;;;3.17;74.78
76201;BME280;64981;52.930;9.266;2024-01-15T11:42:14;99285.75;;;3.05;75.91
76201;BME280;64981;52.930;9.266;2024-01-15T11:44:40;99290.38;;;2.94;75.82
76201;BME280;64981;52.930;9.266;2024-01-15T11:47:09;99283.59;;;3.01;75.60
76201;BME280;64981;52.930;9.266;2024-01-15T11:50:01;99298.72;;;3.15;75.44
76201;BME280;64981;52.930;9.266;2024-01-15T11:52:32;99282.63;;;2.84;76.21
76201;BME280;64981;52.930;9.266;2024-01-15T11:57:49;99269.00;;;2.72;76.75
76201;BME280;64981;52.930;9.266;2024-01-15T12:00:16;99282.31;;;2.87;76.84
76201;BME280;64981;52.930;9.266;2024-01-15T12:02:44;99276.25;;;3.04;76.21
76201;BME280;64981;52.930;9.266;2024-01-15T12:05:12;99280.91;;;2.93;76.53
76201;BME280;64981;52.930;9.266;2024-01-15T12:07:39;99271.00;;;2.96;75.83
76201;BME280;64981;52.930;9.266;2024-01-15T12:10:15;99279.94;;;2.94;76.59
76201;BME280;64981;52.930;9.266;2024-01-15T12:15:26;99275.84;;;3.09;75.48
76201;BME280;64981;52.930;9.266;2024-01-15T12:17:54;99279.03;;;3.03;75.45
76201;BME280;64981;52.930;9.266;2024-01-15T12:20:20;99279.94;;;2.94;75.99
76201;BME280;64981;52.930;9.266;2024-01-15T12:22:46;99258.75;;;3.14;74.30
76201;BME280;64981;52.930;9.266;2024-01-15T12:25:11;99269.00;;;3.33;74.46
76201;BME280;64981;52.930;9.266;2024-01-15T12:27:38;99277.44;;;3.27;74.84
76201;BME280;64981;52.930;9.266;2024-01-15T12:30:04;99271.31;;;3.36;74.16
76201;BME280;64981;52.930;9.266;2024-01-15T12:32:29;99275.00;;;3.26;74.31
76201;BME280;64981;52.930;9.266;2024-01-15T12:34:55;99270.88;;;3.41;73.22
76201;BME280;64981;52.930;9.266;2024-01-15T12:37:21;99275.81;;;3.26;74.13
76201;BME280;64981;52.930;9.266;2024-01-15T12:39:47;99276.63;;;3.27;73.86
76201;BME280;64981;52.930;9.266;2024-01-15T12:42:14;99270.81;;;3.33;73.45
76201;BME280;64981;52.930;9.266;2024-01-15T12:44:43;99274.56;;;3.56;72.81
76201;BME280;64981;52.930;9.266;2024-01-15T12:47:10;99275.53;;;3.55;72.74
76201;BME280;64981;52.930;9.266;2024-01-15T12:49:37;99271.59;;;3.51;72.33
76201;BME280;64981;52.930;9.266;2024-01-15T12:52:03;99273.84;;;3.46;71.89
76201;BME280;64981;52.930;9.266;2024-01-15T12:54:29;99285.22;;;3.19;74.29
76201;BME280;64981;52.930;9.266;2024-01-15T12:56:54;99280.63;;;3.39;72.98
76201;BME280;64981;52.930;9.266;2024-01-15T12:59:20;99267.78;;;3.46;73.33
76201;BME280;64981;52.930;9.266;2024-01-15T13:01:46;99288.69;;;3.46;72.69
76201;BME280;64981;52.930;9.266;2024-01-15T13:04:21;99289.56;;;3.54;72.76
76201;BME280;64981;52.930;9.266;2024-01-15T13:06:47;99272.16;;;3.37;73.39
76201;BME280;64981;52.930;9.266;2024-01-15T13:09:12;99284.19;;;3.56;73.22
76201;BME280;64981;52.930;9.266;2024-01-15T13:11:38;99295.34;;;3.40;73.22
76201;BME280;64981;52.930;9.266;2024-01-15T13:14:04;99275.84;;;3.52;73.10
76201;BME280;64981;52.930;9.266;2024-01-15T13:16:29;99285.63;;;3.50;72.99